createdAt,value
2016-02-25T00:00:56.789Z,70.15
2016-02-25T00:01:56.762Z,70.9
2016-02-25T00:02:56.764Z,71.57
2016-02-25T00:03:56.750Z,71.95
2016-02-25T00:04:56.754Z,72.61
2016-02-25T00:05:56.756Z,72.71
2016-02-25T00:06:56.759Z,73.94
2016-02-25T00:07:56.745Z,73.56
2016-02-25T00:08:56.748Z,74.03
2016-02-25T00:09:56.736Z,74.98
2016-02-25T00:10:56.738Z,75.42
2016-02-25T00:11:56.742Z,75.6
2016-02-25T00:12:56.744Z,75.89
2016-02-25T00:13:56.730Z,76.65
2016-02-25T00:14:56.750Z,77.31
2016-02-25T00:15:56.721Z,77.69
2016-02-25T00:16:56.724Z,78.16
2016-02-25T00:17:56.711Z,78.16
2016-02-25T00:18:56.713Z,77.78
2016-02-25T00:19:56.716Z,77.97
2016-02-25T00:20:56.702Z,78.83
2016-02-25T00:21:56.722Z,78.92
2016-02-25T00:22:56.708Z,79.3
2016-02-25T00:23:56.695Z,79.49
2016-02-25T00:24:56.698Z,78.92
2016-02-25T00:25:56.685Z,79.96
2016-02-25T00:26:56.688Z,80.34
2016-02-25T00:27:56.691Z,80.15
2016-02-25T00:28:56.709Z,80.34
2016-02-25T00:29:56.679Z,80.44
2016-02-25T00:30:56.682Z,80.44
2016-02-25T00:31:56.670Z,80.91
2016-02-25T00:32:56.673Z,81.38
2016-02-25T00:33:56.675Z,81.86
2016-02-25T00:34:56.662Z,82.05
2016-02-25T00:35:56.681Z,81.95
2016-02-25T00:36:56.667Z,81.76
2016-02-25T00:37:56.656Z,81.95
2016-02-25T00:38:56.658Z,81.67
2016-02-25T00:39:56.645Z,82.43
2016-02-25T00:40:56.647Z,82.24
2016-02-25T00:41:56.634Z,82.52
2016-02-25T00:42:56.637Z,82.52
2016-02-25T00:43:56.639Z,82.33
2016-02-25T00:44:56.642Z,82.05
2016-02-25T00:45:56.630Z,82.71
2016-02-25T00:46:56.632Z,82.52
2016-02-25T00:47:56.620Z,82.9
2016-02-25T00:48:56.622Z,83.28
2016-02-25T00:49:56.609Z,83.28
2016-02-25T00:50:56.611Z,83.94
2016-02-25T00:51:56.614Z,83.75
2016-02-25T00:52:56.602Z,83.75
2016-02-25T00:53:56.619Z,83.56
2016-02-25T00:54:56.607Z,83.94
2016-02-25T00:55:56.593Z,84.13
2016-02-25T00:56:56.596Z,84.13
2016-02-25T00:57:56.584Z,83.94
2016-02-25T00:58:56.587Z,84.04
2016-02-25T00:59:56.589Z,83.94
2016-02-25T01:00:56.592Z,84.04
2016-02-25T01:01:56.579Z,83.81
2016-02-25T01:02:56.581Z,83.9
2016-02-25T01:03:56.584Z,84.13
2016-02-25T01:04:56.571Z,83.71
2016-02-25T01:05:56.573Z,83.81
2016-02-25T01:06:56.576Z,84
2016-02-25T01:07:56.564Z,83.71
2016-02-25T01:08:56.567Z,84.28
2016-02-25T01:09:56.569Z,84.23
2016-02-25T01:10:56.540Z,84.38
2016-02-25T01:11:56.559Z,84.51
2016-02-25T01:12:56.545Z,84.38
2016-02-25T01:13:56.548Z,84.89
2016-02-25T01:14:56.536Z,84.19
2016-02-25T01:15:56.553Z,84.19
2016-02-25T01:16:56.525Z,84.75
2016-02-25T01:17:56.528Z,84.42
2016-02-25T01:18:56.530Z,84.23
2016-02-25T01:19:56.533Z,84.85
2016-02-25T01:20:56.536Z,84.56
2016-02-25T01:21:56.524Z,85.04
2016-02-25T01:22:56.526Z,85.36
2016-02-25T01:23:56.513Z,85.08
2016-02-25T01:24:56.500Z,84.89
2016-02-25T01:25:56.518Z,84.85
2016-02-25T01:26:56.521Z,84.56
2016-02-25T01:27:56.493Z,84.66
2016-02-25T01:28:56.496Z,84.94
2016-02-25T01:29:56.513Z,84.75
2016-02-25T01:30:56.516Z,84.66
2016-02-25T01:31:56.487Z,85.04
2016-02-25T01:32:56.490Z,85.13
2016-02-25T01:33:56.477Z,84.94
2016-02-25T01:34:56.480Z,84.75
2016-02-25T01:35:56.467Z,85.51
2016-02-25T01:36:56.470Z,85.89
2016-02-25T01:37:56.473Z,86.27
2016-02-25T01:38:56.475Z,86.83
2016-02-25T01:39:56.462Z,86.74
2016-02-25T01:40:56.465Z,86.46
2016-02-25T01:41:56.453Z,86.46
2016-02-25T01:42:56.439Z,86.55
2016-02-25T01:43:56.473Z,86.83
2016-02-25T01:44:56.445Z,86.65
2016-02-25T01:45:56.448Z,87.4
2016-02-25T01:46:56.481Z,87.88
2016-02-25T01:47:56.436Z,87.5
2016-02-25T01:48:56.439Z,87.5
2016-02-25T01:49:56.442Z,87.78
2016-02-25T01:50:56.430Z,87.78
2016-02-25T01:51:56.433Z,87.4
2016-02-25T01:52:56.419Z,87.88
2016-02-25T01:53:56.438Z,88.35
2016-02-25T01:54:56.408Z,88.31
2016-02-25T01:55:56.411Z,89.01
2016-02-25T01:56:56.399Z,88.97
2016-02-25T01:57:56.416Z,88.78
2016-02-25T01:58:56.404Z,88.59
2016-02-25T01:59:56.391Z,88.87
2016-02-25T02:00:56.393Z,89.16
2016-02-25T02:01:56.381Z,89.44
2016-02-25T02:02:56.384Z,89.82
2016-02-25T02:03:56.371Z,89.73
2016-02-25T02:04:56.374Z,90.01
2016-02-25T02:05:56.368Z,90.01
2016-02-25T02:06:56.864Z,89.92
2016-02-25T02:07:56.374Z,90.01
2016-02-25T02:08:56.376Z,90.01
2016-02-25T02:09:56.675Z,90.01
2016-02-25T02:10:56.381Z,89.73
2016-02-25T02:11:56.336Z,90.01
2016-02-25T02:12:56.339Z,89.92
2016-02-25T02:13:56.341Z,89.73
2016-02-25T02:14:56.329Z,90.01
2016-02-25T02:15:56.316Z,90.77
2016-02-25T02:16:56.319Z,89.82
2016-02-25T02:17:56.290Z,90.3
2016-02-25T02:18:56.293Z,90.48
2016-02-25T02:19:56.327Z,90.58
2016-02-25T02:20:56.299Z,90.39
2016-02-25T02:21:56.333Z,90.58
2016-02-25T02:22:56.304Z,90.39
2016-02-25T02:23:56.274Z,90.3
2016-02-25T02:24:56.277Z,90.11
2016-02-25T02:25:56.265Z,90.3
2016-02-25T02:26:56.251Z,89.73
2016-02-25T02:27:56.270Z,90.01
2016-02-25T02:28:56.257Z,90.01
2016-02-25T02:29:56.245Z,90.58
2016-02-25T02:30:56.247Z,91.15
2016-02-25T02:31:56.234Z,90.86
2016-02-25T02:32:56.237Z,90.67
2016-02-25T02:33:56.224Z,91.43
2016-02-25T02:34:56.242Z,90.96
2016-02-25T02:35:56.229Z,91.62
2016-02-25T02:36:56.217Z,91.34
2016-02-25T02:37:56.219Z,91.81
2016-02-25T02:38:56.206Z,91.81
2016-02-25T02:39:56.209Z,91.34
2016-02-25T02:40:56.195Z,91.15
2016-02-25T02:41:56.198Z,91.24
2016-02-25T02:42:56.201Z,91.91
2016-02-25T02:43:56.189Z,91.62
2016-02-25T02:44:56.191Z,91.34
2016-02-25T02:45:56.177Z,91.81
2016-02-25T02:46:56.181Z,92.19
2016-02-25T02:47:56.168Z,91.91
2016-02-25T02:48:56.155Z,91.81
2016-02-25T02:49:56.157Z,91.72
2016-02-25T02:50:56.160Z,91.72
2016-02-25T02:51:56.147Z,91.81
2016-02-25T02:52:56.149Z,91.91
2016-02-25T02:53:56.137Z,91.81
2016-02-25T02:54:56.140Z,92.47
2016-02-25T02:55:56.127Z,92.47
2016-02-25T02:56:56.129Z,92.76
2016-02-25T02:57:56.116Z,92.1
2016-02-25T02:58:56.118Z,91.81
2016-02-25T02:59:56.121Z,91.81
2016-02-25T03:00:56.108Z,91.62
2016-02-25T03:01:56.111Z,92.1
2016-02-25T03:02:56.114Z,92.1
2016-02-25T03:03:56.101Z,92.1
2016-02-25T03:04:56.088Z,91.72
2016-02-25T03:05:56.081Z,91.81
2016-02-25T03:06:56.083Z,91.81
2016-02-25T03:07:56.085Z,92.57
2016-02-25T03:08:56.073Z,92.47
2016-02-25T03:09:56.075Z,92.76
2016-02-25T03:10:56.063Z,92.47
2016-02-25T03:11:56.066Z,92.66
2016-02-25T03:12:56.068Z,92.29
2016-02-25T03:13:56.055Z,92.29
2016-02-25T03:14:56.041Z,92.57
2016-02-25T03:15:56.045Z,92.47
2016-02-25T03:16:56.047Z,92.66
2016-02-25T03:17:56.050Z,92.57
2016-02-25T03:18:56.037Z,91.91
2016-02-25T03:19:56.024Z,92.57
2016-02-25T03:20:56.027Z,92.76
2016-02-25T03:21:56.029Z,92.66
2016-02-25T03:22:56.033Z,92.76
2016-02-25T03:23:56.019Z,92.19
2016-02-25T03:24:56.007Z,92.1
2016-02-25T03:25:55.993Z,92.38
2016-02-25T03:26:55.996Z,92.47
2016-02-25T03:27:55.842Z,92.29
2016-02-25T03:28:55.986Z,92.66
2016-02-25T03:29:55.972Z,92.85
2016-02-25T03:30:55.976Z,92.38
2016-02-25T03:31:55.978Z,92.57
2016-02-25T03:32:55.965Z,92.57
2016-02-25T03:33:55.984Z,92.38
2016-02-25T03:34:55.987Z,92.57
2016-02-25T03:35:55.958Z,92.94
2016-02-25T03:36:55.945Z,92.57
2016-02-25T03:37:55.948Z,92.94
2016-02-25T03:38:55.950Z,93.23
2016-02-25T03:39:55.952Z,92.94
2016-02-25T03:40:55.939Z,92.66
2016-02-25T03:41:55.927Z,92.38
2016-02-25T03:42:55.914Z,92.85
2016-02-25T03:43:55.917Z,92.66
2016-02-25T03:44:55.920Z,92.76
2016-02-25T03:45:55.922Z,92.47
2016-02-25T03:46:55.909Z,92.47
2016-02-25T03:47:55.912Z,93.32
2016-02-25T03:48:55.899Z,93.32
2016-02-25T03:49:55.886Z,92.47
2016-02-25T03:50:55.888Z,92.57
2016-02-25T03:51:55.891Z,93.42
2016-02-25T03:52:55.878Z,93.04
2016-02-25T03:53:55.710Z,93.13
2016-02-25T03:54:55.868Z,93.04
2016-02-25T03:55:55.871Z,92.47
2016-02-25T03:56:55.857Z,92.47
2016-02-25T03:57:55.860Z,92.94
2016-02-25T03:58:55.863Z,92.66
2016-02-25T03:59:55.850Z,93.32
2016-02-25T04:00:55.837Z,93.42
2016-02-25T04:01:55.840Z,93.23
2016-02-25T04:02:55.843Z,93.23
2016-02-25T04:03:55.830Z,93.32
2016-02-25T04:04:55.817Z,93.51
2016-02-25T04:05:55.822Z,93.13
2016-02-25T04:06:55.810Z,93.32
2016-02-25T04:07:55.812Z,93.51
2016-02-25T04:08:55.814Z,93.42
2016-02-25T04:09:55.803Z,93.04
2016-02-25T04:10:55.789Z,93.42
2016-02-25T04:11:55.792Z,93.32
2016-02-25T04:12:55.794Z,93.42
2016-02-25T04:13:55.781Z,93.51
2016-02-25T04:14:55.784Z,93.32
2016-02-25T04:15:55.772Z,93.51
2016-02-25T04:16:55.774Z,92.94
2016-02-25T04:17:55.761Z,92.94
2016-02-25T04:18:55.764Z,93.13
2016-02-25T04:19:55.767Z,93.23
2016-02-25T04:20:55.754Z,93.23
2016-02-25T04:21:55.740Z,93.13
2016-02-25T04:22:55.743Z,93.42
2016-02-25T04:23:55.746Z,93.23
2016-02-25T04:24:55.732Z,92.76
2016-02-25T04:25:55.720Z,92.94
2016-02-25T04:26:55.739Z,93.13
2016-02-25T04:27:55.726Z,93.23
2016-02-25T04:28:55.712Z,93.32
2016-02-25T04:29:55.715Z,93.23
2016-02-25T04:30:55.718Z,93.42
2016-02-25T04:31:55.704Z,93.32
2016-02-25T04:32:55.723Z,92.94
2016-02-25T04:33:55.695Z,93.13
2016-02-25T04:34:55.681Z,93.13
2016-02-25T04:35:55.684Z,93.51
2016-02-25T04:36:55.687Z,93.13
2016-02-25T04:37:55.675Z,92.85
2016-02-25T04:38:55.677Z,93.42
2016-02-25T04:39:55.664Z,93.42
2016-02-25T04:40:55.651Z,93.89
2016-02-25T04:41:55.670Z,93.99
2016-02-25T04:42:55.656Z,93.42
2016-02-25T04:43:55.643Z,93.42
2016-02-25T04:44:55.662Z,93.89
2016-02-25T04:45:55.633Z,93.61
2016-02-25T04:46:55.636Z,93.42
2016-02-25T04:47:55.623Z,94.08
2016-02-25T04:48:55.641Z,93.99
2016-02-25T04:49:55.613Z,93.8
2016-02-25T04:50:55.616Z,94.18
2016-02-25T04:51:55.603Z,94.08
2016-02-25T04:52:55.590Z,93.89
2016-02-25T04:53:55.592Z,94.18
2016-02-25T04:54:55.595Z,94.18
2016-02-25T04:55:55.582Z,93.99
2016-02-25T04:56:55.584Z,94.18
2016-02-25T04:57:55.571Z,94.08
2016-02-25T04:58:55.606Z,94.46
2016-02-25T04:59:55.562Z,94.74
2016-02-25T05:00:55.580Z,93.89
2016-02-25T05:01:55.395Z,94.18
2016-02-25T05:02:55.554Z,94.27
2016-02-25T05:03:55.541Z,93.99
2016-02-25T05:04:55.543Z,93.7
2016-02-25T05:05:55.546Z,93.8
2016-02-25T05:06:55.534Z,94.08
2016-02-25T05:07:55.537Z,93.8
2016-02-25T05:08:55.523Z,93.99
2016-02-25T05:09:55.511Z,93.8
2016-02-25T05:10:55.529Z,93.23
2016-02-25T05:11:55.500Z,93.23
2016-02-25T05:12:55.503Z,92.85
2016-02-25T05:13:55.505Z,93.32
2016-02-25T05:14:55.509Z,94.08
2016-02-25T05:15:55.511Z,93.7
2016-02-25T05:16:57.248Z,93.8
2016-02-25T05:17:55.485Z,93.8
2016-02-25T05:18:55.488Z,93.89
2016-02-25T05:19:55.475Z,94.18
2016-02-25T05:20:55.494Z,93.23
2016-02-25T05:21:55.464Z,93.23
2016-02-25T05:22:55.452Z,93.51
2016-02-25T05:23:55.455Z,93.42
2016-02-25T05:24:55.441Z,93.99
2016-02-25T05:25:55.444Z,93.42
2016-02-25T05:26:55.447Z,93.32
2016-02-25T05:27:55.434Z,93.42
2016-02-25T05:28:55.437Z,93.32
2016-02-25T05:29:55.440Z,93.51
2016-02-25T05:30:55.443Z,93.32
2016-02-25T05:31:55.413Z,93.99
2016-02-25T05:32:55.415Z,93.8
2016-02-25T05:33:55.404Z,93.99
2016-02-25T05:34:55.406Z,94.37
2016-02-25T05:35:55.393Z,93.89
2016-02-25T05:36:55.380Z,93.8
2016-02-25T05:37:55.382Z,93.7
2016-02-25T05:38:55.385Z,93.99
2016-02-25T05:39:55.404Z,93.89
2016-02-25T05:40:55.391Z,93.8
2016-02-25T05:41:55.362Z,93.99
2016-02-25T05:42:55.364Z,93.7
2016-02-25T05:43:55.352Z,93.99
2016-02-25T05:44:55.370Z,94.18
2016-02-25T05:45:55.342Z,94.18
2016-02-25T05:46:55.344Z,94.18
2016-02-25T05:47:55.331Z,94.18
2016-02-25T05:48:55.333Z,94.27
2016-02-25T05:49:55.321Z,93.99
2016-02-25T05:50:55.324Z,94.27
2016-02-25T05:51:55.327Z,94.27
2016-02-25T05:52:55.329Z,94.65
2016-02-25T05:53:55.301Z,94.08
2016-02-25T05:54:55.302Z,94.18
2016-02-25T05:55:55.306Z,94.27
2016-02-25T05:56:55.293Z,94.46
2016-02-25T05:57:55.280Z,94.37
2016-02-25T05:58:55.283Z,94.27
2016-02-25T05:59:55.286Z,94.18
2016-02-25T06:00:55.273Z,94.27
2016-02-25T06:01:55.259Z,94.08
2016-02-25T06:02:55.278Z,94.84
2016-02-25T06:03:55.265Z,94.65
2016-02-25T06:04:55.252Z,94.56
2016-02-25T06:05:55.255Z,94.84
2016-02-25T06:06:55.242Z,94.46
2016-02-25T06:07:55.245Z,94.74
2016-02-25T06:08:55.231Z,94.37
2016-02-25T06:09:55.235Z,94.84
2016-02-25T06:10:55.221Z,94.65
2016-02-25T06:11:55.224Z,94.65
2016-02-25T06:12:55.226Z,94.84
2016-02-25T06:13:55.214Z,94.08
2016-02-25T06:14:55.201Z,94.84
2016-02-25T06:15:55.203Z,94.74
2016-02-25T06:16:55.191Z,94.56
2016-02-25T06:17:55.194Z,94.74
2016-02-25T06:18:55.197Z,94.84
2016-02-25T06:19:55.183Z,94.56
2016-02-25T06:20:55.186Z,94.56
2016-02-25T06:21:55.173Z,94.56
2016-02-25T06:22:55.160Z,94.84
2016-02-25T06:23:55.178Z,94.27
2016-02-25T06:24:55.166Z,93.89
2016-02-25T06:25:55.152Z,94.08
2016-02-25T06:26:55.155Z,93.8
2016-02-25T06:27:55.142Z,94.27
2016-02-25T06:28:55.145Z,93.99
2016-02-25T06:29:55.147Z,94.84
2016-02-25T06:30:55.119Z,94.65
2016-02-25T06:31:55.137Z,94.08
2016-02-25T06:32:55.124Z,94.27
2016-02-25T06:33:55.112Z,94.08
2016-02-25T06:34:55.114Z,94.18
2016-02-25T06:35:55.101Z,93.99
2016-02-25T06:36:55.088Z,93.99
2016-02-25T06:37:55.090Z,93.7
2016-02-25T06:38:55.109Z,93.42
2016-02-25T06:39:55.081Z,93.23
2016-02-25T06:40:55.084Z,93.04
2016-02-25T06:41:55.086Z,93.23
2016-02-25T06:42:55.073Z,93.23
2016-02-25T06:43:55.059Z,93.32
2016-02-25T06:44:55.063Z,92.47
2016-02-25T06:45:55.065Z,92.66
2016-02-25T06:46:55.053Z,92.57
2016-02-25T06:47:55.056Z,92
2016-02-25T06:48:55.042Z,91.72
2016-02-25T06:49:55.061Z,92.29
2016-02-25T06:50:55.032Z,92.47
2016-02-25T06:51:55.036Z,92.76
2016-02-25T06:52:55.038Z,92.29
2016-02-25T06:53:55.025Z,92.57
2016-02-25T06:54:55.028Z,91.34
2016-02-25T06:55:55.045Z,91.43
2016-02-25T06:56:55.017Z,91.34
2016-02-25T06:57:55.005Z,91.81
2016-02-25T06:58:54.986Z,92.1
2016-02-25T06:59:54.974Z,91.62
2016-02-25T07:00:54.961Z,91.62
2016-02-25T07:01:54.948Z,91.72
2016-02-25T07:02:54.920Z,91.34
2016-02-25T07:03:54.897Z,90.77
2016-02-25T07:04:54.894Z,90.11
2016-02-25T07:05:54.884Z,90.2
2016-02-25T07:06:54.865Z,90.96
2016-02-25T07:07:54.863Z,91.62
2016-02-25T07:08:54.861Z,91.72
2016-02-25T07:09:54.847Z,91.53
2016-02-25T07:10:54.832Z,90.58
2016-02-25T07:11:54.833Z,90.67
2016-02-25T07:12:54.818Z,90.58
2016-02-25T07:13:54.819Z,90.01
2016-02-25T07:14:54.806Z,89.63
2016-02-25T07:15:54.807Z,90.2
2016-02-25T07:16:54.794Z,90.11
2016-02-25T07:17:54.811Z,89.92
2016-02-25T07:18:54.798Z,90.01
2016-02-25T07:19:54.816Z,89.16
2016-02-25T07:20:54.789Z,90.01
2016-02-25T07:21:54.775Z,89.82
2016-02-25T07:22:54.778Z,90.11
2016-02-25T07:23:54.765Z,89.82
2016-02-25T07:24:54.766Z,90.01
2016-02-25T07:25:54.754Z,89.25
2016-02-25T07:26:54.757Z,89.49
2016-02-25T07:27:54.760Z,89.11
2016-02-25T07:28:54.730Z,89.2
2016-02-25T07:29:54.733Z,89.68
2016-02-25T07:30:54.736Z,88.97
2016-02-25T07:31:54.739Z,89.25
2016-02-25T07:32:54.727Z,88.92
2016-02-25T07:33:54.729Z,89.3
2016-02-25T07:34:54.716Z,89.01
2016-02-25T07:35:54.718Z,88.92
2016-02-25T07:36:54.721Z,89.2
2016-02-25T07:37:54.724Z,88.64
2016-02-25T07:38:54.555Z,88.92
2016-02-25T07:39:54.698Z,88.54
2016-02-25T07:40:54.701Z,87.88
2016-02-25T07:41:54.687Z,87.5
2016-02-25T07:42:54.690Z,87.59
2016-02-25T07:43:54.678Z,87.59
2016-02-25T07:44:54.696Z,87.69
2016-02-25T07:45:54.683Z,88.45
2016-02-25T07:46:54.670Z,88.45
2016-02-25T07:47:54.673Z,88.92
2016-02-25T07:48:54.675Z,88.26
2016-02-25T07:49:54.647Z,88.35
2016-02-25T07:50:54.649Z,88.64
2016-02-25T07:51:54.653Z,88.07
2016-02-25T07:52:54.655Z,87.98
2016-02-25T07:53:54.658Z,88.26
2016-02-25T07:54:54.644Z,87.69
2016-02-25T07:55:54.632Z,87.59
2016-02-25T07:56:54.619Z,87.78
2016-02-25T07:57:54.637Z,87.4
2016-02-25T07:58:54.625Z,87.88
2016-02-25T07:59:54.611Z,88.07
2016-02-25T08:00:54.614Z,88.07
2016-02-25T08:01:54.601Z,87.78
2016-02-25T08:02:54.604Z,87.69
2016-02-25T08:03:54.591Z,87.5
2016-02-25T08:04:54.594Z,88.07
2016-02-25T08:05:54.596Z,88.17
2016-02-25T08:06:54.583Z,88.26
2016-02-25T08:07:54.617Z,88.26
2016-02-25T08:08:54.588Z,88.17
2016-02-25T08:09:54.576Z,88.17
2016-02-25T08:10:54.579Z,88.07
2016-02-25T08:11:54.581Z,87.5
2016-02-25T08:12:54.553Z,87.78
2016-02-25T08:13:54.571Z,87.69
2016-02-25T08:14:54.558Z,87.4
2016-02-25T08:15:54.561Z,86.55
2016-02-25T08:16:54.563Z,86.65
2016-02-25T08:17:54.534Z,86.74
2016-02-25T08:18:54.553Z,86.65
2016-02-25T08:19:54.539Z,87.31
2016-02-25T08:20:54.543Z,87.69
2016-02-25T08:21:54.545Z,87.12
2016-02-25T08:22:54.517Z,86.46
2016-02-25T08:23:54.519Z,86.65
2016-02-25T08:24:54.522Z,87.21
2016-02-25T08:25:54.509Z,86.46
2016-02-25T08:26:54.512Z,85.99
2016-02-25T08:27:54.515Z,86.46
2016-02-25T08:28:54.502Z,86.55
2016-02-25T08:29:54.505Z,86.65
2016-02-25T08:30:54.507Z,85.93
2016-02-25T08:31:54.494Z,85.42
2016-02-25T08:32:54.481Z,84.99
2016-02-25T08:33:54.499Z,85.74
2016-02-25T08:34:54.471Z,86.41
2016-02-25T08:35:54.474Z,86.22
2016-02-25T08:36:54.477Z,85.84
2016-02-25T08:37:54.464Z,85.08
2016-02-25T08:38:54.466Z,84.7
2016-02-25T08:39:54.454Z,83.75
2016-02-25T08:40:54.457Z,83.75
2016-02-25T08:41:54.443Z,84.13
2016-02-25T08:42:54.461Z,83.85
2016-02-25T08:43:54.449Z,83.47
2016-02-25T08:44:54.435Z,83.94
2016-02-25T08:45:54.438Z,84.13
2016-02-25T08:46:54.441Z,84.61
2016-02-25T08:47:54.428Z,84.42
2016-02-25T08:48:54.431Z,83.28
2016-02-25T08:49:54.433Z,83.75
2016-02-25T08:50:54.420Z,83.56
2016-02-25T08:51:54.423Z,83.37
2016-02-25T08:52:54.410Z,83.37
2016-02-25T08:53:54.428Z,83.28
2016-02-25T08:54:54.416Z,83.85
2016-02-25T08:55:54.419Z,82.18
2016-02-25T08:56:54.406Z,81.81
2016-02-25T08:57:54.408Z,81.9
2016-02-25T08:58:54.395Z,81.67
2016-02-25T08:59:54.397Z,82.28
2016-02-25T09:00:54.385Z,82.24
2016-02-25T09:01:54.388Z,81.67
2016-02-25T09:02:54.390Z,81.81
2016-02-25T09:03:54.377Z,81.14
2016-02-25T09:04:54.396Z,81.24
2016-02-25T09:05:54.383Z,81.24
2016-02-25T09:06:54.386Z,81.99
2016-02-25T09:07:54.372Z,81.62
2016-02-25T09:08:54.374Z,81.24
2016-02-25T09:09:54.362Z,80.1
2016-02-25T09:10:54.380Z,80
2016-02-25T09:11:54.368Z,80.38
2016-02-25T09:12:54.370Z,81.14
2016-02-25T09:13:54.388Z,80.95
2016-02-25T09:14:54.375Z,81.9
2016-02-25T09:15:54.362Z,82.28
2016-02-25T09:16:54.350Z,81.9
2016-02-25T09:17:54.368Z,81.9
2016-02-25T09:18:54.356Z,81.05
2016-02-25T09:19:54.359Z,81.52
2016-02-25T09:20:54.376Z,81.9
2016-02-25T09:21:54.348Z,81.62
2016-02-25T09:22:54.351Z,81.05
2016-02-25T09:23:54.337Z,80.29
2016-02-25T09:24:54.340Z,81.24
2016-02-25T09:25:54.343Z,80.38
2016-02-25T09:26:54.330Z,81.05
2016-02-25T09:27:54.333Z,81.14
2016-02-25T09:28:54.336Z,79.91
2016-02-25T09:29:54.339Z,80.1
2016-02-25T09:30:54.325Z,79.91
2016-02-25T09:31:54.309Z,80.38
2016-02-25T09:32:54.331Z,81.99
2016-02-25T09:33:54.333Z,81.9
2016-02-25T09:34:54.302Z,81.43
2016-02-25T09:35:54.306Z,81.14
2016-02-25T09:36:54.308Z,80.95
2016-02-25T09:37:54.295Z,80.57
2016-02-25T09:38:54.297Z,80.95
2016-02-25T09:39:54.300Z,81.43
2016-02-25T09:40:54.287Z,81.9
2016-02-25T09:41:54.305Z,82.75
2016-02-25T09:42:54.293Z,81.43
2016-02-25T09:43:54.296Z,82.18
2016-02-25T09:44:54.282Z,82.14
2016-02-25T09:45:54.301Z,82.81
2016-02-25T09:46:54.288Z,83
2016-02-25T09:47:54.275Z,83.75
2016-02-25T09:48:54.293Z,83.09
2016-02-25T09:49:54.280Z,83.37
2016-02-25T09:50:54.299Z,83.47
2016-02-25T09:51:54.285Z,83.47
2016-02-25T09:52:54.273Z,83.09
2016-02-25T09:53:54.276Z,83.47
2016-02-25T09:54:54.263Z,82.52
2016-02-25T09:55:54.265Z,82.24
2016-02-25T09:56:54.251Z,83.28
2016-02-25T09:57:54.255Z,83.18
2016-02-25T09:58:54.242Z,83.28
2016-02-25T09:59:54.245Z,83.37
2016-02-25T10:00:54.247Z,82.9
2016-02-25T10:01:54.234Z,82.28
2016-02-25T10:02:54.253Z,82.24
2016-02-25T10:03:54.240Z,82.43
2016-02-25T10:04:54.227Z,82.9
2016-02-25T10:05:54.230Z,83.09
2016-02-25T10:06:54.233Z,83.18
2016-02-25T10:07:54.235Z,83.75
2016-02-25T10:08:54.222Z,84.04
2016-02-25T10:09:54.225Z,84.04
2016-02-25T10:10:54.211Z,83.37
2016-02-25T10:11:54.214Z,82.24
2016-02-25T10:12:54.202Z,82.24
2016-02-25T10:13:54.219Z,82.47
2016-02-25T10:14:54.207Z,83.8
2016-02-25T10:15:54.194Z,83.13
2016-02-25T10:16:54.196Z,83
2016-02-25T10:17:54.199Z,84.17
2016-02-25T10:18:54.202Z,83.94
2016-02-25T10:19:54.174Z,84.08
2016-02-25T10:20:54.191Z,83.13
2016-02-25T10:21:54.179Z,81.81
2016-02-25T10:22:54.182Z,81.76
2016-02-25T10:23:54.184Z,82.14
2016-02-25T10:24:54.171Z,82.52
2016-02-25T10:25:54.159Z,82.05
2016-02-25T10:26:54.176Z,82.9
2016-02-25T10:27:54.164Z,83
2016-02-25T10:28:54.167Z,82.81
2016-02-25T10:29:54.153Z,81.86
2016-02-25T10:30:54.172Z,81.62
2016-02-25T10:31:54.159Z,81.43
2016-02-25T10:32:54.162Z,81.43
2016-02-25T10:33:54.148Z,81.05
2016-02-25T10:34:54.151Z,81.52
2016-02-25T10:35:54.154Z,81.24
2016-02-25T10:36:54.156Z,81.14
2016-02-25T10:37:53.972Z,80.29
2016-02-25T10:38:53.974Z,79.15
2016-02-25T10:39:54.133Z,79.06
2016-02-25T10:40:54.120Z,79.15
2016-02-25T10:41:54.139Z,78.49
2016-02-25T10:42:54.126Z,78.39
2016-02-25T10:43:54.129Z,77.92
2016-02-25T10:44:54.131Z,78.3
2016-02-25T10:45:54.119Z,78.87
2016-02-25T10:46:54.122Z,78.67
2016-02-25T10:47:54.124Z,78.87
2016-02-25T10:48:54.111Z,79.25
2016-02-25T10:49:54.113Z,79.53
2016-02-25T10:50:54.101Z,77.83
2016-02-25T10:51:54.104Z,78.39
2016-02-25T10:52:54.232Z,78.02
2016-02-25T10:53:54.109Z,77.25
2016-02-25T10:54:54.096Z,77.83
2016-02-25T10:55:54.098Z,77.35
2016-02-25T10:56:54.101Z,76.73
2016-02-25T10:57:54.104Z,76.34
2016-02-25T10:58:54.090Z,75.59
2016-02-25T10:59:54.157Z,75.87
2016-02-25T11:00:54.081Z,75.87
2016-02-25T11:01:54.084Z,75.68
2016-02-25T11:02:54.087Z,75.78
2016-02-25T11:03:54.089Z,74.83
2016-02-25T11:04:54.092Z,74.73
2016-02-25T11:05:54.095Z,74.92
2016-02-25T11:06:54.098Z,74.73
2016-02-25T11:07:54.085Z,75.02
2016-02-25T11:08:54.071Z,74.58
2016-02-25T11:09:54.074Z,73.82
2016-02-25T11:10:54.077Z,73.54
2016-02-25T11:11:54.080Z,73.35
2016-02-25T11:12:54.082Z,73.25
2016-02-25T11:13:54.085Z,73.16
2016-02-25T11:14:54.088Z,73.69
2016-02-25T11:15:54.090Z,74.26
2016-02-25T11:16:54.062Z,74.16
2016-02-25T11:17:54.081Z,75.02
2016-02-25T11:18:54.083Z,72.93
2016-02-25T11:19:54.070Z,73.31
2016-02-25T11:20:54.073Z,73.22
2016-02-25T11:21:54.061Z,73.88
2016-02-25T11:22:54.047Z,73.6
2016-02-25T11:23:54.067Z,74.07
2016-02-25T11:24:54.053Z,74.35
2016-02-25T11:25:54.055Z,74.83
2016-02-25T11:26:54.059Z,74.73
2016-02-25T11:27:54.061Z,75.21
2016-02-25T11:28:54.064Z,74.83
2016-02-25T11:29:54.050Z,74.54
2016-02-25T11:30:54.053Z,74.16
2016-02-25T11:31:54.071Z,74.54
2016-02-25T11:32:54.043Z,74.73
2016-02-25T11:33:54.046Z,74.92
2016-02-25T11:34:54.049Z,75.59
2016-02-25T11:35:54.035Z,76.15
2016-02-25T11:36:54.055Z,75.78
2016-02-25T11:37:54.041Z,75.21
2016-02-25T11:38:54.044Z,74.83
2016-02-25T11:39:54.047Z,74.73
2016-02-25T11:40:54.033Z,73.12
2016-02-25T11:41:54.036Z,73.03
2016-02-25T11:42:54.039Z,73.03
2016-02-25T11:43:54.026Z,73.31
2016-02-25T11:44:54.029Z,72.93
2016-02-25T11:45:54.032Z,73.22
2016-02-25T11:46:54.034Z,73.88
2016-02-25T11:47:54.021Z,73.79
2016-02-25T11:48:54.039Z,74.64
2016-02-25T11:49:54.026Z,75.02
2016-02-25T11:50:54.014Z,74.83
2016-02-25T11:51:54.017Z,73.54
2016-02-25T11:52:54.019Z,74.3
2016-02-25T11:53:54.006Z,73.07
2016-02-25T11:54:54.008Z,72.11
2016-02-25T11:55:54.011Z,71.83
2016-02-25T11:56:54.014Z,73.25
2016-02-25T11:57:54.001Z,72.49
2016-02-25T11:58:54.020Z,70.69
2016-02-25T11:59:54.006Z,71.64
2016-02-25T12:00:54.009Z,72.11
2016-02-25T12:01:54.012Z,70.78
2016-02-25T12:02:54.030Z,70.98
2016-02-25T12:03:54.002Z,70.69
2016-02-25T12:04:54.019Z,70.59
2016-02-25T12:05:54.008Z,72.08
2016-02-25T12:06:54.010Z,72.17
2016-02-25T12:07:53.997Z,73.03
2016-02-25T12:08:54.000Z,73.31
2016-02-25T12:09:53.986Z,73.22
2016-02-25T12:10:54.005Z,73.6
2016-02-25T12:11:53.992Z,72.36
2016-02-25T12:12:53.995Z,71.36
2016-02-25T12:13:53.997Z,71.89
2016-02-25T12:14:54.000Z,73.12
2016-02-25T12:15:54.003Z,73.44
2016-02-25T12:16:53.990Z,73.25
2016-02-25T12:17:54.008Z,72.97
2016-02-25T12:18:53.996Z,72.4
2016-02-25T12:19:53.998Z,72.11
2016-02-25T12:20:54.001Z,73.25
2016-02-25T12:21:54.003Z,72.68
2016-02-25T12:22:53.975Z,72.02
2016-02-25T12:23:53.993Z,72.02
2016-02-25T12:24:53.995Z,72.11
2016-02-25T12:25:53.983Z,70.5
2016-02-25T12:26:53.985Z,69.65
2016-02-25T12:27:53.972Z,69.93
2016-02-25T12:28:53.975Z,69.21
2016-02-25T12:29:53.994Z,68.73
2016-02-25T12:30:53.981Z,68.26
2016-02-25T12:31:53.984Z,68.54
2016-02-25T12:32:54.002Z,67.59
2016-02-25T12:33:54.020Z,68.54
2016-02-25T12:34:54.007Z,67.12
2016-02-25T12:35:53.994Z,66.71
2016-02-25T12:36:53.997Z,65.19
2016-02-25T12:37:53.984Z,65
2016-02-25T12:38:53.987Z,66.17
2016-02-25T12:39:53.989Z,65.37
2016-02-25T12:40:53.992Z,64.17
2016-02-25T12:41:53.994Z,63.76
2016-02-25T12:42:53.997Z,63.29
2016-02-25T12:43:54.016Z,62.15
2016-02-25T12:44:53.987Z,62.62
2016-02-25T12:45:53.974Z,64.24
2016-02-25T12:46:53.992Z,64.52
2016-02-25T12:47:54.010Z,66.23
2016-02-25T12:48:53.982Z,64.33
2016-02-25T12:49:53.969Z,64.75
2016-02-25T12:50:54.004Z,64.84
2016-02-25T12:51:53.990Z,65.5
2016-02-25T12:52:53.977Z,65.41
2016-02-25T12:53:53.996Z,66.17
2016-02-25T12:54:53.999Z,65.41
2016-02-25T12:55:53.954Z,65.22